KMMT

Mc Entire Jngb Airport

Eastover, South Carolina, USA
METAR KMMT 231056Z 00000KT 6SM BR OVC007 22/22 A3010 RMK AO2A SLP193 T02150215 $
Observed Flight Rules
May-23 @ 10:56 UTC (18 minutes ago) Instrument Flight Rules
Visibility Clouds Conditions
6 miles
  • Overcast at 700' AGL
  • Mist
Temperatures Readings
Current 22°C / 72°F
Dewpoint 22°C / 72°F
Humidity 100%
Altimeter 30.1" Hg
Pressure 1019.3 hPa
Elevation 77
METAR KMMT 231056Z 00000KT 6SM BR OVC007 22/22 A3010 RMK AO2A SLP193 T02150215 $
Observed Flight Rules
May-23 @ 10:56 UTC
(18 minutes ago)
IFR
Clouds
  • Overcast at 700' AGL
Conditions
  • Mist
Temperature Dewpoint
22°C / 72°F 22°C / 72°F
Humidity Altimeter Pressure
100% 30.1" Hg 1019.3 hPa